createdAt,value
2018-07-10T00:00:09.039Z,77.30
2018-07-10T00:03:51.290Z,77.00
2018-07-10T00:06:30.140Z,76.70
2018-07-10T00:09:09.746Z,76.90
2018-07-10T00:11:37.410Z,77.10
2018-07-10T00:14:05.461Z,77.00
2018-07-10T00:16:33.503Z,77.10
2018-07-10T00:19:01.394Z,77.20
2018-07-10T00:21:28.967Z,77.20
2018-07-10T00:23:56.577Z,77.30
2018-07-10T00:26:24.416Z,77.20
2018-07-10T00:28:52.695Z,77.20
2018-07-10T00:31:20.600Z,77.00
2018-07-10T00:33:48.843Z,76.80
2018-07-10T00:36:16.884Z,77.80
2018-07-10T00:38:56.298Z,76.90
2018-07-10T00:41:32.045Z,76.80
2018-07-10T00:44:01.242Z,77.50
2018-07-10T00:46:30.736Z,77.10
2018-07-10T00:48:58.375Z,77.00
2018-07-10T00:51:26.488Z,76.90
2018-07-10T00:53:54.127Z,77.00
2018-07-10T00:56:21.738Z,77.00
2018-07-10T00:58:50.895Z,76.80
2018-07-10T01:01:19.578Z,77.10
2018-07-10T01:03:47.388Z,77.00
2018-07-10T01:06:15.050Z,77.20
2018-07-10T01:08:42.722Z,77.10
2018-07-10T01:11:13.428Z,77.20
2018-07-10T01:13:42.386Z,77.20
2018-07-10T01:16:11.097Z,77.50
2018-07-10T01:18:41.466Z,77.30
2018-07-10T01:21:11.319Z,77.40
2018-07-10T01:23:39.742Z,77.40
2018-07-10T01:26:08.921Z,77.60
2018-07-10T01:28:37.552Z,77.40
2018-07-10T01:31:05.157Z,77.30
2018-07-10T01:33:32.754Z,77.20
2018-07-10T01:36:03.605Z,77.40
2018-07-10T01:38:31.911Z,77.10
2018-07-10T01:40:59.842Z,77.10
2018-07-10T01:45:55.846Z,77.20
2018-07-10T01:48:23.480Z,77.00
2018-07-10T01:50:51.188Z,76.90
2018-07-10T01:53:20.103Z,77.00
2018-07-10T01:55:47.649Z,77.00
2018-07-10T01:58:15.396Z,77.10
2018-07-10T02:00:44.769Z,76.70
2018-07-10T02:03:12.878Z,76.50
2018-07-10T02:05:41.439Z,76.30
2018-07-10T02:08:09.161Z,76.30
2018-07-10T02:10:37.264Z,76.60
2018-07-10T02:13:05.286Z,77.00
2018-07-10T02:15:33.401Z,76.60
2018-07-10T02:18:01.593Z,76.50
2018-07-10T02:20:36.830Z,76.60
2018-07-10T02:23:04.466Z,76.40
2018-07-10T02:25:32.420Z,76.40
2018-07-10T02:28:00.474Z,76.40
2018-07-10T02:30:28.455Z,76.30
2018-07-10T02:32:55.973Z,76.30
2018-07-10T02:35:24.066Z,76.30
2018-07-10T02:42:47.472Z,76.00
2018-07-10T02:45:15.426Z,75.90
2018-07-10T02:47:43.024Z,75.80
2018-07-10T02:50:10.631Z,75.80
2018-07-10T02:52:40.368Z,75.80
2018-07-10T02:55:08.170Z,75.90
2018-07-10T02:57:36.049Z,75.90
2018-07-10T03:00:04.503Z,76.10
2018-07-10T03:02:32.937Z,75.70
2018-07-10T03:05:03.608Z,75.60
2018-07-10T03:07:36.386Z,75.50
2018-07-10T03:10:04.040Z,75.50
2018-07-10T03:12:33.010Z,75.50
2018-07-10T03:15:05.069Z,75.40
2018-07-10T03:17:33.356Z,75.50
2018-07-10T03:20:02.568Z,75.60
2018-07-10T03:22:31.022Z,75.60
2018-07-10T03:24:58.623Z,75.70
2018-07-10T03:27:26.526Z,75.90
2018-07-10T03:29:54.370Z,75.70
2018-07-10T03:32:21.997Z,75.70
2018-07-10T03:34:50.163Z,75.90
2018-07-10T03:37:17.748Z,75.80
2018-07-10T03:39:46.501Z,75.80
2018-07-10T03:42:14.098Z,75.60
2018-07-10T03:44:44.585Z,75.80
2018-07-10T03:47:15.494Z,75.70
2018-07-10T03:49:44.010Z,75.70
2018-07-10T03:52:13.400Z,75.50
2018-07-10T03:54:42.044Z,75.50
2018-07-10T03:57:11.583Z,75.70
2018-07-10T03:59:50.171Z,75.60
2018-07-10T04:02:18.389Z,75.70
2018-07-10T04:04:47.234Z,75.60
2018-07-10T04:07:15.213Z,75.50
2018-07-10T04:09:42.846Z,75.50
2018-07-10T04:12:10.800Z,76.20
2018-07-10T04:14:40.361Z,75.20
2018-07-10T04:17:09.216Z,75.40
2018-07-10T04:19:37.492Z,75.50
2018-07-10T04:22:05.041Z,75.50
2018-07-10T04:24:32.626Z,75.40
2018-07-10T04:27:07.703Z,75.60
2018-07-10T04:29:43.055Z,75.60
2018-07-10T04:32:13.079Z,75.60
2018-07-10T04:34:41.346Z,75.60
2018-07-10T04:37:13.210Z,75.50
2018-07-10T04:39:43.026Z,75.40
2018-07-10T04:42:21.420Z,75.30
2018-07-10T04:45:09.778Z,75.40
2018-07-10T04:47:43.829Z,75.30
2018-07-10T04:50:39.861Z,75.30
2018-07-10T04:54:16.842Z,74.90
2018-07-10T04:56:49.000Z,75.20
2018-07-10T04:59:16.601Z,75.30
2018-07-10T05:01:45.313Z,75.20
2018-07-10T05:04:13.442Z,75.10
2018-07-10T05:06:41.022Z,74.80
2018-07-10T05:09:08.629Z,75.30
2018-07-10T05:11:41.529Z,74.80
2018-07-10T05:14:09.589Z,74.80
2018-07-10T05:16:37.554Z,74.30
2018-07-10T05:19:05.594Z,74.00
2018-07-10T05:21:34.255Z,74.10
2018-07-10T05:24:01.861Z,74.10
2018-07-10T05:26:29.467Z,74.00
2018-07-10T05:28:57.614Z,73.20
2018-07-10T05:31:25.136Z,72.30
2018-07-10T05:33:53.834Z,71.50
2018-07-10T05:36:22.979Z,71.70
2018-07-10T05:38:55.495Z,70.80
2018-07-10T05:41:23.132Z,70.00
2018-07-10T05:43:52.802Z,70.20
2018-07-10T05:46:22.327Z,70.30
2018-07-10T05:48:59.923Z,68.80
2018-07-10T05:51:31.305Z,69.70
2018-07-10T05:54:02.949Z,68.10
2018-07-10T06:03:18.581Z,69.60
2018-07-10T06:08:14.083Z,70.10
2018-07-10T06:10:41.879Z,70.20
2018-07-10T06:13:09.477Z,69.90
2018-07-10T06:15:37.973Z,70.40
2018-07-10T06:18:06.531Z,69.50
2018-07-10T06:20:34.239Z,69.30
2018-07-10T06:23:02.666Z,69.30
2018-07-10T06:25:34.112Z,69.40
2018-07-10T06:28:11.644Z,69.90
2018-07-10T06:30:39.591Z,69.30
2018-07-10T06:33:23.077Z,68.80
2018-07-10T06:36:00.306Z,69.90
2018-07-10T06:38:28.167Z,68.00
2018-07-10T06:40:55.786Z,67.60
2018-07-10T06:43:30.409Z,66.80
2018-07-10T06:45:57.991Z,66.40
2018-07-10T06:48:26.259Z,66.60
2018-07-10T06:50:54.033Z,65.10
2018-07-10T06:53:24.559Z,66.20
2018-07-10T06:55:54.339Z,64.70
2018-07-10T06:58:23.535Z,64.80
2018-07-10T07:00:54.474Z,64.00
2018-07-10T07:03:24.239Z,64.10
2018-07-10T07:05:52.303Z,63.40
2018-07-10T07:08:20.831Z,63.80
2018-07-10T07:10:48.727Z,63.80
2018-07-10T07:15:44.034Z,60.30
2018-07-10T07:18:12.011Z,61.30
2018-07-10T07:20:40.467Z,59.50
2018-07-10T07:23:08.011Z,61.60
2018-07-10T07:25:35.535Z,62.20
2018-07-10T07:28:03.927Z,61.90
2018-07-10T07:30:32.746Z,60.30
2018-07-10T07:33:00.297Z,60.10
2018-07-10T07:35:28.591Z,59.70
2018-07-10T07:37:56.194Z,58.80
2018-07-10T07:40:23.741Z,59.20
2018-07-10T07:42:51.674Z,58.70
2018-07-10T07:45:19.949Z,60.10
2018-07-10T07:47:48.522Z,59.20
2018-07-10T07:50:16.122Z,60.10
2018-07-10T07:52:43.746Z,59.20
2018-07-10T07:55:12.826Z,59.60
2018-07-10T07:57:40.939Z,60.30
2018-07-10T08:00:09.121Z,58.90
2018-07-10T08:02:37.057Z,58.90
2018-07-10T08:05:04.667Z,59.60
2018-07-10T08:07:32.263Z,60.00
2018-07-10T08:09:59.922Z,60.10
2018-07-10T08:12:29.314Z,60.50
2018-07-10T08:14:58.962Z,60.80
2018-07-10T08:17:27.082Z,61.30
2018-07-10T08:22:24.631Z,61.30
2018-07-10T08:24:52.822Z,61.60
2018-07-10T08:27:22.569Z,60.90
2018-07-10T08:29:50.205Z,60.40
2018-07-10T08:32:17.775Z,60.40
2018-07-10T08:34:46.795Z,60.50
2018-07-10T08:37:14.415Z,60.30
2018-07-10T08:39:42.559Z,60.10
2018-07-10T08:42:10.719Z,59.20
2018-07-10T08:44:38.690Z,58.40
2018-07-10T08:47:08.291Z,58.20
2018-07-10T08:49:37.768Z,58.60
2018-07-10T08:52:07.946Z,60.00
2018-07-10T08:54:36.745Z,59.50
2018-07-10T08:57:04.440Z,59.40
2018-07-10T08:59:33.173Z,58.90
2018-07-10T09:02:02.429Z,59.10
2018-07-10T09:04:30.698Z,58.50
2018-07-10T09:06:58.628Z,58.80
2018-07-10T09:09:26.271Z,58.60
2018-07-10T09:11:53.897Z,59.20
2018-07-10T09:14:21.529Z,59.30
2018-07-10T09:16:49.238Z,58.70
2018-07-10T09:19:20.447Z,58.70
2018-07-10T09:21:51.339Z,59.10
2018-07-10T09:24:20.085Z,59.50
2018-07-10T09:26:50.218Z,59.70
2018-07-10T09:29:18.540Z,58.60
2018-07-10T09:31:46.098Z,58.60
2018-07-10T09:34:15.455Z,57.10
2018-07-10T09:39:11.335Z,57.50
2018-07-10T09:41:38.968Z,58.20
2018-07-10T09:44:07.051Z,57.10
2018-07-10T09:46:35.007Z,56.40
2018-07-10T09:49:02.938Z,56.60
2018-07-10T09:51:30.895Z,56.00
2018-07-10T09:53:58.527Z,57.30
2018-07-10T09:56:26.501Z,54.80
2018-07-10T09:58:55.858Z,55.50
2018-07-10T10:01:27.186Z,54.60
2018-07-10T10:03:55.694Z,54.20
2018-07-10T10:06:24.079Z,54.70
2018-07-10T10:08:52.533Z,54.80
2018-07-10T10:11:20.824Z,55.30
2018-07-10T10:13:48.802Z,55.30
2018-07-10T10:16:17.367Z,52.80
2018-07-10T10:21:14.840Z,53.50
2018-07-10T10:23:43.731Z,54.40
2018-07-10T10:26:13.187Z,54.30
2018-07-10T10:28:41.064Z,55.00
2018-07-10T10:31:09.727Z,55.50
2018-07-10T10:33:37.331Z,54.30
2018-07-10T10:36:05.238Z,55.20
2018-07-10T10:38:34.991Z,54.90
2018-07-10T10:41:02.969Z,53.40
2018-07-10T10:43:31.106Z,53.00
2018-07-10T10:45:59.098Z,52.50
2018-07-10T10:48:27.274Z,52.60
2018-07-10T10:50:54.976Z,53.10
2018-07-10T10:53:23.613Z,52.60
2018-07-10T10:55:51.166Z,52.20
2018-07-10T10:58:19.814Z,52.40
2018-07-10T11:00:48.454Z,51.50
2018-07-10T11:05:44.010Z,51.40
2018-07-10T11:08:11.756Z,50.90
2018-07-10T11:10:39.367Z,50.90
2018-07-10T11:13:07.132Z,49.70
2018-07-10T11:15:41.085Z,50.00
2018-07-10T11:18:11.463Z,49.80
2018-07-10T11:21:02.061Z,49.30
2018-07-10T11:23:48.197Z,48.20
2018-07-10T11:26:24.938Z,48.20
2018-07-10T11:28:53.268Z,48.00
2018-07-10T11:33:49.730Z,46.90
2018-07-10T11:36:17.463Z,46.90
2018-07-10T11:38:45.471Z,47.00
2018-07-10T11:41:13.383Z,45.90
2018-07-10T11:43:41.479Z,46.30
2018-07-10T11:46:09.599Z,47.40
2018-07-10T11:48:37.233Z,47.20
2018-07-10T11:51:05.452Z,47.00
2018-07-10T11:56:00.538Z,46.50
2018-07-10T11:58:28.156Z,47.00
2018-07-10T12:00:56.431Z,46.10
2018-07-10T12:03:24.063Z,47.60
2018-07-10T12:05:52.392Z,47.30
2018-07-10T12:08:20.111Z,47.90
2018-07-10T12:10:58.144Z,48.20
2018-07-10T12:13:25.783Z,47.80
2018-07-10T12:15:53.407Z,49.20
2018-07-10T12:18:21.691Z,48.60
2018-07-10T12:20:50.078Z,49.30
2018-07-10T12:23:17.674Z,49.30
2018-07-10T12:25:45.711Z,49.90
2018-07-10T12:28:14.624Z,50.30
2018-07-10T12:30:42.265Z,50.80
2018-07-10T12:33:10.008Z,50.80
2018-07-10T12:35:38.382Z,51.10
2018-07-10T12:38:06.419Z,51.10
2018-07-10T12:40:34.442Z,51.80
2018-07-10T12:43:03.083Z,47.80
2018-07-10T12:45:30.980Z,48.10
2018-07-10T12:47:59.011Z,48.70
2018-07-10T12:50:27.726Z,49.80
2018-07-10T12:52:56.138Z,51.10
2018-07-10T12:55:26.024Z,51.50
2018-07-10T12:57:54.189Z,54.10
2018-07-10T13:00:23.107Z,59.90
2018-07-10T13:02:53.077Z,63.60
2018-07-10T13:05:22.824Z,63.60
2018-07-10T13:07:50.445Z,65.80
2018-07-10T13:10:18.100Z,72.30
2018-07-10T13:12:46.208Z,74.50
2018-07-10T13:15:14.387Z,76.80
2018-07-10T13:17:44.243Z,77.80
2018-07-10T13:20:12.591Z,78.70
2018-07-10T13:22:40.568Z,79.60
2018-07-10T13:25:08.168Z,80.80
2018-07-10T13:27:35.778Z,81.40
2018-07-10T13:32:30.907Z,86.80
2018-07-10T13:34:59.320Z,86.10
2018-07-10T13:37:28.523Z,88.20
2018-07-10T13:40:00.908Z,87.10
2018-07-10T13:42:53.707Z,87.40
2018-07-10T13:45:23.513Z,88.30
2018-07-10T13:47:51.587Z,89.30
2018-07-10T13:50:22.190Z,90.00
2018-07-10T13:52:50.246Z,90.50
2018-07-10T13:55:18.571Z,91.00
2018-07-10T13:58:51.454Z,89.10
2018-07-10T14:01:20.952Z,90.60
2018-07-10T14:03:48.720Z,90.70
2018-07-10T14:06:16.355Z,90.60
2018-07-10T14:08:44.008Z,89.70
2018-07-10T14:11:12.304Z,90.90
2018-07-10T14:13:40.368Z,89.30
2018-07-10T14:16:08.024Z,89.60
2018-07-10T14:18:37.472Z,89.30
2018-07-10T14:21:06.328Z,86.30
2018-07-10T14:23:34.089Z,86.30
2018-07-10T14:26:03.580Z,86.10
2018-07-10T14:28:31.731Z,83.40
2018-07-10T14:31:00.312Z,78.40
2018-07-10T14:33:28.760Z,79.30
2018-07-10T14:35:56.681Z,80.00
2018-07-10T14:38:26.720Z,78.00
2018-07-10T14:40:55.432Z,76.70
2018-07-10T14:43:26.398Z,72.10
2018-07-10T14:46:02.403Z,70.00
2018-07-10T14:48:33.503Z,69.60
2018-07-10T14:53:29.227Z,74.10
2018-07-10T14:55:57.595Z,73.60
2018-07-10T14:58:25.247Z,75.40
2018-07-10T15:00:53.410Z,76.40
2018-07-10T15:03:21.727Z,75.70
2018-07-10T15:05:49.745Z,74.80
2018-07-10T15:08:17.323Z,73.50
2018-07-10T15:10:45.218Z,73.30
2018-07-10T15:13:12.906Z,74.70
2018-07-10T15:15:40.475Z,75.40
2018-07-10T15:18:15.390Z,76.00
2018-07-10T15:20:43.210Z,75.80
2018-07-10T15:23:10.778Z,76.60
2018-07-10T15:25:38.346Z,75.30
2018-07-10T15:28:05.919Z,75.20
2018-07-10T15:33:02.247Z,76.10
2018-07-10T15:35:30.344Z,76.40
2018-07-10T15:37:58.953Z,76.60
2018-07-10T15:40:26.581Z,76.20
2018-07-10T15:42:54.618Z,76.00
2018-07-10T15:45:22.514Z,75.80
2018-07-10T15:47:50.568Z,75.50
2018-07-10T15:50:18.132Z,76.30
2018-07-10T15:52:45.736Z,76.30
2018-07-10T15:57:41.233Z,75.10
2018-07-10T16:00:08.805Z,74.20
2018-07-10T16:02:37.344Z,75.40
2018-07-10T16:05:06.228Z,75.20
2018-07-10T16:07:34.704Z,75.50
2018-07-10T16:12:29.903Z,75.00
2018-07-10T16:14:57.576Z,74.90
2018-07-10T16:17:26.724Z,74.70
2018-07-10T16:20:02.912Z,74.90
2018-07-10T16:22:32.021Z,74.70
2018-07-10T16:25:06.701Z,75.30
2018-07-10T16:27:40.104Z,75.70
2018-07-10T16:30:07.736Z,75.80
2018-07-10T16:32:38.956Z,76.00
2018-07-10T16:35:08.346Z,76.50
2018-07-10T16:37:36.180Z,76.30
2018-07-10T16:42:39.063Z,76.90
2018-07-10T16:45:08.304Z,77.20
2018-07-10T16:47:43.810Z,76.80
2018-07-10T16:50:12.801Z,76.30
2018-07-10T16:52:53.070Z,75.80
2018-07-10T16:55:20.735Z,75.60
2018-07-10T16:57:48.360Z,75.10
2018-07-10T17:00:17.030Z,75.40
2018-07-10T17:02:45.660Z,74.90
2018-07-10T17:05:14.928Z,73.40
2018-07-10T17:07:42.540Z,72.70
2018-07-10T17:10:11.092Z,71.70
2018-07-10T17:12:38.677Z,71.80
2018-07-10T17:15:06.456Z,71.00
2018-07-10T17:17:35.574Z,70.20
2018-07-10T17:20:04.541Z,69.70
2018-07-10T17:22:32.089Z,70.10
2018-07-10T17:25:00.380Z,70.40
2018-07-10T17:27:31.442Z,70.90
2018-07-10T17:30:00.031Z,72.50
2018-07-10T17:32:28.228Z,74.30
2018-07-10T17:34:56.662Z,75.10
2018-07-10T17:37:24.394Z,75.60
2018-07-10T17:42:21.135Z,75.70
2018-07-10T17:44:49.610Z,76.40
2018-07-10T17:47:17.269Z,77.50
2018-07-10T17:49:45.312Z,77.80
2018-07-10T17:52:13.214Z,79.50
2018-07-10T17:54:40.862Z,79.10
2018-07-10T17:57:08.552Z,77.30
2018-07-10T17:59:36.624Z,77.70
2018-07-10T18:02:04.837Z,77.70
2018-07-10T18:04:32.844Z,77.20
2018-07-10T18:07:01.503Z,77.30
2018-07-10T18:09:29.311Z,77.30
2018-07-10T18:11:57.758Z,75.50
2018-07-10T18:14:25.706Z,74.80
2018-07-10T18:16:54.498Z,74.80
2018-07-10T18:19:23.786Z,75.10
2018-07-10T18:21:51.836Z,75.00
2018-07-10T18:24:20.543Z,75.00
2018-07-10T18:26:49.053Z,73.70
2018-07-10T18:29:17.706Z,74.30
2018-07-10T18:31:46.083Z,73.90
2018-07-10T18:34:15.051Z,74.10
2018-07-10T18:39:11.442Z,74.50
2018-07-10T18:41:40.378Z,75.00
2018-07-10T18:44:09.558Z,75.50
2018-07-10T18:46:38.723Z,74.90
2018-07-10T18:49:06.511Z,74.70
2018-07-10T18:51:35.484Z,74.50
2018-07-10T18:54:03.897Z,74.30
2018-07-10T18:56:32.268Z,74.70
2018-07-10T18:59:12.196Z,74.60
2018-07-10T19:02:19.418Z,74.90
2018-07-10T19:05:07.842Z,74.90
2018-07-10T19:07:38.168Z,75.40
2018-07-10T19:10:06.612Z,75.70
2018-07-10T19:12:35.247Z,76.00
2018-07-10T19:15:03.957Z,76.70
2018-07-10T19:17:33.541Z,76.70
2018-07-10T19:20:10.866Z,76.80
2018-07-10T19:22:50.107Z,77.40
2018-07-10T19:25:18.314Z,77.00
2018-07-10T19:27:50.237Z,77.00
2018-07-10T19:30:20.463Z,77.10
2018-07-10T19:35:18.629Z,77.60
2018-07-10T19:37:46.768Z,77.70
2018-07-10T19:42:43.711Z,77.80
2018-07-10T19:45:13.136Z,78.30
2018-07-10T19:47:41.473Z,77.70
2018-07-10T19:50:18.142Z,78.00
2018-07-10T19:52:53.923Z,77.50
2018-07-10T19:55:24.954Z,77.60
2018-07-10T19:59:05.052Z,77.20
2018-07-10T20:01:46.375Z,77.10
2018-07-10T20:04:21.322Z,77.20
2018-07-10T20:06:58.101Z,78.80
2018-07-10T20:09:29.354Z,79.30
2018-07-10T20:12:05.685Z,79.70
2018-07-10T20:14:48.085Z,79.10
2018-07-10T20:17:17.712Z,79.30
2018-07-10T20:19:57.333Z,79.00
2018-07-10T20:23:31.332Z,78.90
2018-07-10T20:26:40.163Z,79.50
2018-07-10T20:29:23.605Z,79.40
2018-07-10T20:32:00.276Z,81.60
2018-07-10T20:35:36.898Z,81.20
2018-07-10T20:38:04.538Z,81.50
2018-07-10T20:40:35.780Z,81.00
2018-07-10T20:43:10.099Z,81.30
2018-07-10T20:45:39.717Z,80.90
2018-07-10T20:48:08.178Z,81.20
2018-07-10T20:50:54.032Z,81.10
2018-07-10T20:53:32.824Z,81.00
2018-07-10T20:56:11.952Z,81.30
2018-07-10T20:58:47.912Z,81.80
2018-07-10T21:01:15.787Z,82.60
2018-07-10T21:06:36.455Z,82.00
2018-07-10T21:09:08.170Z,81.60
2018-07-10T21:11:48.122Z,81.90
2018-07-10T21:14:26.915Z,82.00
2018-07-10T21:17:00.817Z,82.80
2018-07-10T21:21:49.491Z,83.00
2018-07-10T21:24:21.837Z,82.80
2018-07-10T21:27:23.705Z,82.40
2018-07-10T21:30:32.256Z,82.30
2018-07-10T21:33:38.574Z,82.50
2018-07-10T21:36:13.570Z,82.40
2018-07-10T21:38:46.469Z,83.70
2018-07-10T21:41:38.962Z,83.60
2018-07-10T21:44:19.104Z,83.50
2018-07-10T21:46:51.511Z,84.20
2018-07-10T21:49:40.328Z,84.20
2018-07-10T21:52:07.906Z,83.80
2018-07-10T21:54:36.695Z,85.30
2018-07-10T21:57:04.303Z,84.70
2018-07-10T21:59:34.482Z,85.90
2018-07-10T22:02:08.659Z,86.90
2018-07-10T22:04:37.441Z,87.20
2018-07-10T22:07:11.293Z,86.70
2018-07-10T22:09:40.052Z,86.50
2018-07-10T22:14:36.605Z,86.40
2018-07-10T22:19:38.692Z,87.10
2018-07-10T22:22:06.276Z,86.40
2018-07-10T22:24:34.004Z,87.20
2018-07-10T22:27:02.723Z,88.60
2018-07-10T22:29:36.117Z,88.30
2018-07-10T22:32:10.645Z,88.30
2018-07-10T22:34:41.885Z,88.80
2018-07-10T22:37:09.896Z,89.20
2018-07-10T22:39:38.053Z,91.30
2018-07-10T22:44:37.463Z,89.20
2018-07-10T22:47:05.527Z,89.30
2018-07-10T22:49:33.437Z,90.20
2018-07-10T22:52:02.780Z,88.90
2018-07-10T22:54:32.677Z,89.10
2018-07-10T22:57:00.275Z,88.90
2018-07-10T22:59:28.735Z,89.20
2018-07-10T23:01:56.912Z,89.30
2018-07-10T23:04:24.512Z,89.10
2018-07-10T23:06:52.122Z,88.80
2018-07-10T23:09:20.488Z,89.10
2018-07-10T23:11:48.093Z,88.80
2018-07-10T23:14:15.970Z,89.00
2018-07-10T23:16:45.324Z,89.20
2018-07-10T23:19:13.498Z,89.30
2018-07-10T23:21:41.258Z,88.30
2018-07-10T23:24:09.778Z,88.00
2018-07-10T23:26:39.731Z,87.70
2018-07-10T23:29:07.350Z,87.80
2018-07-10T23:31:34.976Z,88.40
2018-07-10T23:34:12.460Z,88.30
2018-07-10T23:36:40.049Z,88.30
2018-07-10T23:39:09.927Z,88.60
2018-07-10T23:42:00.653Z,88.30
2018-07-10T23:44:31.110Z,88.50
2018-07-10T23:47:06.082Z,89.30
2018-07-10T23:49:34.034Z,89.30
2018-07-10T23:52:12.953Z,89.20
2018-07-10T23:54:40.561Z,88.60
2018-07-10T23:57:08.202Z,89.10
2018-07-10T23:59:36.245Z,88.70
